createdAt,value
2023-02-19T00:01:48.555Z,9.15
2023-02-19T00:04:17.503Z,9.15
2023-02-19T00:06:46.191Z,9.14
2023-02-19T00:09:15.989Z,9.05
2023-02-19T00:11:46.273Z,9.04
2023-02-19T00:14:17.164Z,9.08
2023-02-19T00:16:44.891Z,8.99
2023-02-19T00:19:14.176Z,8.95
2023-02-19T00:21:41.717Z,9.05
2023-02-19T00:24:12.169Z,9.12
2023-02-19T00:26:40.979Z,9.12
2023-02-19T00:29:10.981Z,9.07
2023-02-19T00:31:38.577Z,9.06
2023-02-19T00:34:07.273Z,8.95
2023-02-19T00:36:36.752Z,8.64
2023-02-19T00:39:06.777Z,8.71
2023-02-19T00:41:34.508Z,8.73
2023-02-19T00:44:04.126Z,8.76
2023-02-19T00:46:36.294Z,8.74
2023-02-19T00:49:05.221Z,8.42
2023-02-19T00:51:35.640Z,8.71
2023-02-19T00:54:03.586Z,8.84
2023-02-19T00:56:31.188Z,8.83
2023-02-19T00:58:58.969Z,8.83
2023-02-19T01:01:26.477Z,8.78
2023-02-19T01:03:55.415Z,8.53
2023-02-19T01:06:23.051Z,8.72
2023-02-19T01:08:51.183Z,8.62
2023-02-19T01:11:20.459Z,8.63
2023-02-19T01:13:48.223Z,8.14
2023-02-19T01:16:18.085Z,8.37
2023-02-19T01:18:46.144Z,8.50
2023-02-19T01:21:17.543Z,8.40
2023-02-19T01:23:45.840Z,8.24
2023-02-19T01:26:16.354Z,8.42
2023-02-19T01:28:44.430Z,8.57
2023-02-19T01:31:15.190Z,8.02
2023-02-19T01:33:46.155Z,8.05
2023-02-19T01:36:16.059Z,8.03
2023-02-19T01:38:44.055Z,8.07
2023-02-19T01:41:13.419Z,8.16
2023-02-19T01:43:59.794Z,8.26
2023-02-19T01:46:28.523Z,8.08
2023-02-19T01:48:56.591Z,8.22
2023-02-19T01:51:25.847Z,7.90
2023-02-19T01:53:55.588Z,8.32
2023-02-19T01:56:24.752Z,8.26
2023-02-19T01:58:52.459Z,8.32
2023-02-19T02:01:19.973Z,8.38
2023-02-19T02:03:49.815Z,8.47
2023-02-19T02:06:25.342Z,8.50
2023-02-19T02:09:14.220Z,8.53
2023-02-19T02:11:43.886Z,8.52
2023-02-19T02:14:11.422Z,8.54
2023-02-19T02:16:45.334Z,8.47
2023-02-19T02:19:31.848Z,8.55
2023-02-19T02:22:04.058Z,8.53
2023-02-19T02:25:10.594Z,8.45
2023-02-19T02:27:45.224Z,8.49
2023-02-19T02:30:36.300Z,8.49
2023-02-19T02:33:11.519Z,8.44
2023-02-19T02:35:43.270Z,8.49
2023-02-19T02:38:12.416Z,8.48
2023-02-19T02:40:43.514Z,8.53
2023-02-19T02:43:11.806Z,8.52
2023-02-19T02:45:41.368Z,8.45
2023-02-19T02:48:14.955Z,8.58
2023-02-19T02:50:45.328Z,8.54
2023-02-19T02:53:34.118Z,8.59
2023-02-19T02:56:04.080Z,8.47
2023-02-19T02:58:33.230Z,8.19
2023-02-19T03:01:23.263Z,8.27
2023-02-19T03:03:56.203Z,8.34
2023-02-19T03:06:26.531Z,8.35
2023-02-19T03:08:57.564Z,8.46
2023-02-19T03:11:43.053Z,8.41
2023-02-19T03:14:30.166Z,8.50
2023-02-19T03:17:19.580Z,8.39
2023-02-19T03:19:51.589Z,8.40
2023-02-19T03:22:21.544Z,7.74
2023-02-19T03:25:10.847Z,7.49
2023-02-19T03:27:40.305Z,7.35
2023-02-19T03:30:12.038Z,7.16
2023-02-19T03:32:43.918Z,7.37
2023-02-19T03:35:14.638Z,7.20
2023-02-19T03:37:46.384Z,7.22
2023-02-19T03:40:14.571Z,7.04
2023-02-19T03:42:45.348Z,7.13
2023-02-19T03:45:23.152Z,7.41
2023-02-19T03:47:54.049Z,7.51
2023-02-19T03:50:25.663Z,7.20
2023-02-19T03:52:59.337Z,7.60
2023-02-19T03:55:29.154Z,7.56
2023-02-19T03:57:59.672Z,7.58
2023-02-19T04:00:31.716Z,7.61
2023-02-19T04:03:08.876Z,7.45
2023-02-19T04:05:38.692Z,7.57
2023-02-19T04:08:10.539Z,7.52
2023-02-19T04:10:39.305Z,7.35
2023-02-19T04:13:09.383Z,7.43
2023-02-19T04:15:38.013Z,7.56
2023-02-19T04:18:08.923Z,7.66
2023-02-19T04:20:39.799Z,7.81
2023-02-19T04:23:07.838Z,7.83
2023-02-19T04:25:37.093Z,7.86
2023-02-19T04:28:05.452Z,7.88
2023-02-19T04:30:33.153Z,7.90
2023-02-19T04:33:00.691Z,7.91
2023-02-19T04:35:29.664Z,7.90
2023-02-19T04:37:57.216Z,7.91
2023-02-19T04:40:24.786Z,7.93
2023-02-19T04:42:52.373Z,7.97
2023-02-19T04:45:19.863Z,7.95
2023-02-19T04:47:47.589Z,7.93
2023-02-19T04:50:15.225Z,7.87
2023-02-19T04:52:44.113Z,7.94
2023-02-19T04:55:11.566Z,8.02
2023-02-19T04:57:39.035Z,7.90
2023-02-19T05:00:08.117Z,7.98
2023-02-19T05:02:35.753Z,7.95
2023-02-19T05:05:03.638Z,7.99
2023-02-19T05:07:31.201Z,7.85
2023-02-19T05:10:00.636Z,8.03
2023-02-19T05:12:28.240Z,7.95
2023-02-19T05:14:56.162Z,7.99
2023-02-19T05:17:23.800Z,7.97
2023-02-19T05:19:51.412Z,7.97
2023-02-19T05:22:19.121Z,7.95
2023-02-19T05:24:46.780Z,7.97
2023-02-19T05:27:15.976Z,7.91
2023-02-19T05:29:43.721Z,7.83
2023-02-19T05:32:11.695Z,7.87
2023-02-19T05:34:39.269Z,7.91
2023-02-19T05:37:07.683Z,7.86
2023-02-19T05:39:35.250Z,7.88
2023-02-19T05:42:04.445Z,7.80
2023-02-19T05:44:33.444Z,7.81
2023-02-19T05:47:01.075Z,7.83
2023-02-19T05:49:28.834Z,7.83
2023-02-19T05:51:56.468Z,7.84
2023-02-19T05:54:23.892Z,7.78
2023-02-19T05:56:51.350Z,7.74
2023-02-19T05:59:20.238Z,7.69
2023-02-19T06:01:49.589Z,7.73
2023-02-19T06:04:19.074Z,7.66
2023-02-19T06:06:47.673Z,7.68
2023-02-19T06:09:15.231Z,7.59
2023-02-19T06:11:43.580Z,7.60
2023-02-19T06:14:13.223Z,7.58
2023-02-19T06:16:42.984Z,7.56
2023-02-19T06:19:12.191Z,7.55
2023-02-19T06:21:40.115Z,7.59
2023-02-19T06:24:08.458Z,7.52
2023-02-19T06:26:36.290Z,7.49
2023-02-19T06:29:04.315Z,7.43
2023-02-19T06:31:32.493Z,7.51
2023-02-19T06:34:00.140Z,7.49
2023-02-19T06:36:31.643Z,7.41
2023-02-19T06:39:01.153Z,7.32
2023-02-19T06:41:31.936Z,7.37
2023-02-19T06:44:00.465Z,7.33
2023-02-19T06:46:28.250Z,7.27
2023-02-19T06:48:56.337Z,7.33
2023-02-19T06:51:26.983Z,7.25
2023-02-19T06:53:56.429Z,7.19
2023-02-19T06:56:26.716Z,7.31
2023-02-19T06:58:55.202Z,7.22
2023-02-19T07:01:23.243Z,7.29
2023-02-19T07:03:52.483Z,7.22
2023-02-19T07:06:20.695Z,7.24
2023-02-19T07:08:48.728Z,7.21
2023-02-19T07:11:20.742Z,7.24
2023-02-19T07:13:49.468Z,7.17
2023-02-19T07:16:18.146Z,7.22
2023-02-19T07:18:46.509Z,7.12
2023-02-19T07:21:16.126Z,7.00
2023-02-19T07:23:48.662Z,7.05
2023-02-19T07:26:20.906Z,7.09
2023-02-19T07:29:01.260Z,7.19
2023-02-19T07:31:30.520Z,7.12
2023-02-19T07:33:59.016Z,7.10
2023-02-19T07:36:27.547Z,7.03
2023-02-19T07:38:56.946Z,7.06
2023-02-19T07:41:26.949Z,7.15
2023-02-19T07:43:55.144Z,7.17
2023-02-19T07:46:23.109Z,7.02
2023-02-19T07:48:50.851Z,7.06
2023-02-19T07:51:20.670Z,6.97
2023-02-19T07:53:50.208Z,7.11
2023-02-19T07:56:19.093Z,7.11
2023-02-19T07:58:48.129Z,7.05
2023-02-19T08:01:17.696Z,6.80
2023-02-19T08:03:44.927Z,6.98
2023-02-19T08:06:13.278Z,6.82
2023-02-19T08:08:41.180Z,7.04
2023-02-19T08:11:34.713Z,6.88
2023-02-19T08:14:03.655Z,7.03
2023-02-19T08:16:42.685Z,7.13
2023-02-19T08:19:11.058Z,7.10
2023-02-19T08:21:38.598Z,7.19
2023-02-19T08:24:06.774Z,7.07
2023-02-19T08:26:34.732Z,7.22
2023-02-19T08:29:03.929Z,7.37
2023-02-19T08:31:31.590Z,7.37
2023-02-19T08:33:59.281Z,7.50
2023-02-19T08:36:28.057Z,7.42
2023-02-19T08:38:55.598Z,7.54
2023-02-19T08:41:23.159Z,7.33
2023-02-19T08:43:50.887Z,7.46
2023-02-19T08:46:20.147Z,7.53
2023-02-19T08:48:47.735Z,7.48
2023-02-19T08:51:15.694Z,7.66
2023-02-19T08:53:43.412Z,7.67
2023-02-19T08:56:13.522Z,7.54
2023-02-19T08:58:42.164Z,7.76
2023-02-19T09:01:11.783Z,7.80
2023-02-19T09:03:41.627Z,7.67
2023-02-19T09:06:12.726Z,7.66
2023-02-19T09:08:40.603Z,7.70
2023-02-19T09:11:08.050Z,7.79
2023-02-19T09:13:35.545Z,7.82
2023-02-19T09:16:04.159Z,7.84
2023-02-19T09:18:32.022Z,7.89
2023-02-19T09:21:03.405Z,7.83
2023-02-19T09:23:31.328Z,7.90
2023-02-19T09:26:03.691Z,7.82
2023-02-19T09:28:31.309Z,7.82
2023-02-19T09:30:58.766Z,7.82
2023-02-19T09:33:26.360Z,7.95
2023-02-19T09:35:54.068Z,8.08
2023-02-19T09:38:22.994Z,7.98
2023-02-19T09:40:50.631Z,8.06
2023-02-19T09:43:20.859Z,7.95
2023-02-19T09:45:48.677Z,8.10
2023-02-19T09:48:16.155Z,8.13
2023-02-19T09:50:47.040Z,8.10
2023-02-19T09:53:18.510Z,8.10
2023-02-19T09:55:47.994Z,8.24
2023-02-19T09:58:24.544Z,8.34
2023-02-19T10:00:52.846Z,8.30
2023-02-19T10:03:25.389Z,8.38
2023-02-19T10:05:53.519Z,8.28
2023-02-19T10:08:22.102Z,8.36
2023-02-19T10:10:51.128Z,8.46
2023-02-19T10:13:21.439Z,8.37
2023-02-19T10:15:51.675Z,8.49
2023-02-19T10:18:20.543Z,8.35
2023-02-19T10:20:48.894Z,8.45
2023-02-19T10:23:17.199Z,8.39
2023-02-19T10:25:48.269Z,8.28
2023-02-19T10:28:19.519Z,8.45
2023-02-19T10:30:50.355Z,8.17
2023-02-19T10:33:18.182Z,8.32
2023-02-19T10:35:54.747Z,8.12
2023-02-19T10:38:24.653Z,8.18
2023-02-19T10:40:59.369Z,8.24
2023-02-19T10:43:33.733Z,8.26
2023-02-19T10:46:04.740Z,8.31
2023-02-19T10:48:36.250Z,8.24
2023-02-19T10:51:07.295Z,8.04
2023-02-19T10:53:42.059Z,8.01
2023-02-19T10:56:11.506Z,8.08
2023-02-19T10:58:42.445Z,7.97
2023-02-19T11:01:16.563Z,8.11
2023-02-19T11:03:44.349Z,8.03
2023-02-19T11:06:13.078Z,8.16
2023-02-19T11:08:51.134Z,7.95
2023-02-19T11:11:33.631Z,8.02
2023-02-19T11:14:05.156Z,8.04
2023-02-19T11:16:43.634Z,8.04
2023-02-19T11:19:26.553Z,8.12
2023-02-19T11:21:54.245Z,8.18
2023-02-19T11:24:30.959Z,8.12
2023-02-19T11:26:59.462Z,8.07
2023-02-19T11:29:29.406Z,8.15
2023-02-19T11:31:57.306Z,8.17
2023-02-19T11:34:30.288Z,8.28
2023-02-19T11:37:13.186Z,8.37
2023-02-19T11:39:42.175Z,8.26
2023-02-19T11:42:19.877Z,8.41
2023-02-19T11:45:03.852Z,8.44
2023-02-19T11:47:46.553Z,8.26
2023-02-19T11:50:22.603Z,8.24
2023-02-19T11:52:57.576Z,8.16
2023-02-19T11:55:38.922Z,8.08
2023-02-19T11:58:19.059Z,8.11
2023-02-19T12:00:53.924Z,8.15
2023-02-19T12:03:47.349Z,8.22
2023-02-19T12:06:23.648Z,8.28
2023-02-19T12:09:17.752Z,8.14
2023-02-19T12:11:55.096Z,8.19
2023-02-19T12:15:05.179Z,8.20
2023-02-19T12:17:43.382Z,8.26
2023-02-19T12:20:19.796Z,8.33
2023-02-19T12:22:53.010Z,8.35
2023-02-19T12:25:34.351Z,8.32
2023-02-19T12:28:17.773Z,8.26
2023-02-19T12:31:01.020Z,8.43
2023-02-19T12:33:43.425Z,8.22
2023-02-19T12:36:20.393Z,8.40
2023-02-19T12:38:54.979Z,8.55
2023-02-19T12:41:30.828Z,8.55
2023-02-19T12:44:01.484Z,8.62
2023-02-19T12:46:33.290Z,8.42
2023-02-19T12:49:07.617Z,8.42
2023-02-19T12:51:40.866Z,8.47
2023-02-19T12:54:15.036Z,8.44
2023-02-19T12:56:45.795Z,8.61
2023-02-19T12:59:16.186Z,8.47
2023-02-19T13:01:48.010Z,8.48
2023-02-19T13:04:21.440Z,8.42
2023-02-19T13:06:52.943Z,8.40
2023-02-19T13:09:24.451Z,8.46
2023-02-19T13:11:55.194Z,8.56
2023-02-19T13:14:26.185Z,8.50
2023-02-19T13:16:57.099Z,8.45
2023-02-19T13:19:25.986Z,8.47
2023-02-19T13:22:22.038Z,8.49
2023-02-19T13:24:53.482Z,8.59
2023-02-19T13:27:40.096Z,8.51
2023-02-19T13:30:23.854Z,8.48
2023-02-19T13:33:04.090Z,8.39
2023-02-19T13:35:58.183Z,8.47
2023-02-19T13:38:25.754Z,8.50
2023-02-19T13:40:59.011Z,8.51
2023-02-19T13:43:28.244Z,8.51
2023-02-19T13:45:58.234Z,8.66
2023-02-19T13:48:29.177Z,8.39
2023-02-19T13:51:34.323Z,8.62
2023-02-19T13:54:14.787Z,8.79
2023-02-19T13:56:42.375Z,8.67
2023-02-19T13:59:35.845Z,8.73
2023-02-19T14:02:12.251Z,8.77
2023-02-19T14:04:47.393Z,8.78
2023-02-19T14:07:36.624Z,8.68
2023-02-19T14:10:09.802Z,8.75
2023-02-19T14:12:38.090Z,8.69
2023-02-19T14:15:41.663Z,8.85
2023-02-19T14:18:41.684Z,8.78
2023-02-19T14:21:17.171Z,8.78
2023-02-19T14:23:45.356Z,8.76
2023-02-19T14:26:16.564Z,8.95
2023-02-19T14:28:45.775Z,8.96
2023-02-19T14:31:20.591Z,8.90
2023-02-19T14:33:50.086Z,8.88
2023-02-19T14:36:24.597Z,8.98
2023-02-19T14:38:54.688Z,8.75
2023-02-19T14:41:24.547Z,8.61
2023-02-19T14:43:53.890Z,8.83
2023-02-19T14:46:26.245Z,8.73
2023-02-19T14:48:53.770Z,8.84
2023-02-19T14:51:31.060Z,8.88
2023-02-19T14:53:59.627Z,8.79
2023-02-19T14:56:33.235Z,8.91
2023-02-19T14:59:23.938Z,8.95
2023-02-19T15:01:55.931Z,8.91
2023-02-19T15:04:25.146Z,8.90
2023-02-19T15:06:53.559Z,8.95
2023-02-19T15:09:21.688Z,8.80
2023-02-19T15:11:51.183Z,8.93
2023-02-19T15:14:22.256Z,8.89
2023-02-19T15:16:57.580Z,9.01
2023-02-19T15:19:25.016Z,8.89
2023-02-19T15:21:52.615Z,8.86
2023-02-19T15:24:20.224Z,9.00
2023-02-19T15:26:51.754Z,8.95
2023-02-19T15:29:20.594Z,8.95
2023-02-19T15:31:49.646Z,8.86
2023-02-19T15:34:18.792Z,8.98
2023-02-19T15:36:46.859Z,8.92
2023-02-19T15:39:20.676Z,8.86
2023-02-19T15:41:55.339Z,8.81
2023-02-19T15:44:35.642Z,9.01
2023-02-19T15:47:10.270Z,8.97
2023-02-19T15:49:44.873Z,9.01
2023-02-19T15:52:18.843Z,9.02
2023-02-19T15:54:51.139Z,8.82
2023-02-19T15:57:22.554Z,8.87
2023-02-19T15:59:51.877Z,8.94
2023-02-19T16:02:19.336Z,8.98
2023-02-19T16:04:46.914Z,8.94
2023-02-19T16:07:25.108Z,8.80
2023-02-19T16:10:08.158Z,8.71
2023-02-19T16:12:37.048Z,8.75
2023-02-19T16:15:13.768Z,8.68
2023-02-19T16:17:43.646Z,8.75
2023-02-19T16:20:19.423Z,8.71
2023-02-19T16:22:46.955Z,8.72
2023-02-19T16:25:26.442Z,8.70
2023-02-19T16:27:55.816Z,8.71
2023-02-19T16:30:33.754Z,8.75
2023-02-19T16:33:21.285Z,8.83
2023-02-19T16:35:49.772Z,8.86
2023-02-19T16:38:18.410Z,8.80
2023-02-19T16:41:08.555Z,8.70
2023-02-19T16:43:42.200Z,8.70
2023-02-19T16:46:12.007Z,8.67
2023-02-19T16:48:39.660Z,8.52
2023-02-19T16:51:08.755Z,8.52
2023-02-19T16:53:36.575Z,8.69
2023-02-19T16:56:04.205Z,8.45
2023-02-19T16:58:31.636Z,8.59
2023-02-19T17:01:04.144Z,8.52
2023-02-19T17:03:31.551Z,8.43
2023-02-19T17:05:58.960Z,8.58
2023-02-19T17:08:37.560Z,8.61
2023-02-19T17:11:07.002Z,8.70
2023-02-19T17:13:34.404Z,8.77
2023-02-19T17:16:03.497Z,8.84
2023-02-19T17:18:31.017Z,8.82
2023-02-19T17:21:03.230Z,8.90
2023-02-19T17:23:30.651Z,8.81
2023-02-19T17:25:58.166Z,8.86
2023-02-19T17:28:25.948Z,8.86
2023-02-19T17:30:53.589Z,8.82
2023-02-19T17:33:22.441Z,8.79
2023-02-19T17:35:49.873Z,8.79
2023-02-19T17:38:17.285Z,8.84
2023-02-19T17:40:45.198Z,8.83
2023-02-19T17:43:12.744Z,8.85
2023-02-19T17:45:40.297Z,8.81
2023-02-19T17:48:07.778Z,8.65
2023-02-19T17:50:37.248Z,8.70
2023-02-19T17:53:04.735Z,8.68
2023-02-19T17:55:33.504Z,8.59
2023-02-19T17:58:03.028Z,8.65
2023-02-19T18:00:32.122Z,8.68
2023-02-19T18:02:59.616Z,8.61
2023-02-19T18:05:27.247Z,8.56
2023-02-19T18:07:55.996Z,8.54
2023-02-19T18:10:24.333Z,8.66
2023-02-19T18:12:52.278Z,8.52
2023-02-19T18:15:21.401Z,8.56
2023-02-19T18:17:48.857Z,8.61
2023-02-19T18:20:17.798Z,8.48
2023-02-19T18:22:45.365Z,8.53
2023-02-19T18:25:14.387Z,8.53
2023-02-19T18:27:41.848Z,8.38
2023-02-19T18:30:11.303Z,8.38
2023-02-19T18:32:38.824Z,8.47
2023-02-19T18:35:07.288Z,8.42
2023-02-19T18:37:35.888Z,8.43
2023-02-19T18:40:04.773Z,8.44
2023-02-19T18:42:33.883Z,8.41
2023-02-19T18:45:01.370Z,8.27
2023-02-19T18:47:28.837Z,8.37
2023-02-19T18:49:59.223Z,8.40
2023-02-19T18:52:27.704Z,8.45
2023-02-19T18:54:57.179Z,8.33
2023-02-19T18:57:25.689Z,8.52
2023-02-19T18:59:54.910Z,8.45
2023-02-19T19:02:22.413Z,8.43
2023-02-19T19:04:51.315Z,8.40
2023-02-19T19:07:19.908Z,8.18
2023-02-19T19:09:48.233Z,8.43
2023-02-19T19:12:16.694Z,8.19
2023-02-19T19:14:44.379Z,8.34
2023-02-19T19:17:13.224Z,8.36
2023-02-19T19:19:41.183Z,8.27
2023-02-19T19:22:08.756Z,8.35
2023-02-19T19:24:36.238Z,8.19
2023-02-19T19:27:03.966Z,8.27
2023-02-19T19:29:32.004Z,8.34
2023-02-19T19:31:59.883Z,8.25
2023-02-19T19:34:29.276Z,8.15
2023-02-19T19:36:56.724Z,8.30
2023-02-19T19:39:24.150Z,8.34
2023-02-19T19:41:54.830Z,8.34
2023-02-19T19:44:25.089Z,8.24
2023-02-19T19:46:53.911Z,8.38
2023-02-19T19:49:22.643Z,8.37
2023-02-19T19:51:52.057Z,8.31
2023-02-19T19:54:20.150Z,8.40
2023-02-19T19:56:50.183Z,8.30
2023-02-19T19:59:18.839Z,8.32
2023-02-19T20:01:50.794Z,8.34
2023-02-19T20:04:19.001Z,8.35
2023-02-19T20:06:46.582Z,8.32
2023-02-19T20:09:16.044Z,8.25
2023-02-19T20:11:47.408Z,8.09
2023-02-19T20:14:15.295Z,8.22
2023-02-19T20:16:44.690Z,8.28
2023-02-19T20:19:12.457Z,8.18
2023-02-19T20:21:40.026Z,8.20
2023-02-19T20:24:08.133Z,8.20
2023-02-19T20:26:36.825Z,8.16
2023-02-19T20:29:06.135Z,8.22
2023-02-19T20:31:34.599Z,8.02
2023-02-19T20:34:03.112Z,8.17
2023-02-19T20:36:33.357Z,8.14
2023-02-19T20:39:01.059Z,8.14
2023-02-19T20:41:28.628Z,8.16
2023-02-19T20:43:57.556Z,8.05
2023-02-19T20:46:25.145Z,7.97
2023-02-19T20:48:52.658Z,8.05
2023-02-19T20:51:20.189Z,8.09
2023-02-19T20:53:47.761Z,8.09
2023-02-19T20:56:15.421Z,8.09
2023-02-19T20:58:43.157Z,8.08
2023-02-19T21:01:12.595Z,8.13
2023-02-19T21:03:40.132Z,8.08
2023-02-19T21:06:08.146Z,8.06
2023-02-19T21:08:36.449Z,8.08
2023-02-19T21:11:04.084Z,7.97
2023-02-19T21:13:31.807Z,7.93
2023-02-19T21:15:59.548Z,7.91
2023-02-19T21:18:29.661Z,7.99
2023-02-19T21:20:57.812Z,7.98
2023-02-19T21:23:25.455Z,7.96
2023-02-19T21:25:54.682Z,7.93
2023-02-19T21:28:22.513Z,8.04
2023-02-19T21:30:50.368Z,8.01
2023-02-19T21:33:18.019Z,7.92
2023-02-19T21:35:47.588Z,8.01
2023-02-19T21:38:15.249Z,7.89
2023-02-19T21:40:43.262Z,7.88
2023-02-19T21:43:12.732Z,7.95
2023-02-19T21:45:40.373Z,7.85
2023-02-19T21:48:09.322Z,7.75
2023-02-19T21:50:37.217Z,7.67
2023-02-19T21:53:06.445Z,7.79
2023-02-19T21:55:34.027Z,7.84
2023-02-19T21:58:01.613Z,7.72
2023-02-19T22:00:29.259Z,7.55
2023-02-19T22:02:56.938Z,7.62
2023-02-19T22:05:25.618Z,7.57
2023-02-19T22:07:53.984Z,7.53
2023-02-19T22:10:23.383Z,7.63
2023-02-19T22:12:51.125Z,7.67
2023-02-19T22:15:19.708Z,7.70
2023-02-19T22:17:47.319Z,7.61
2023-02-19T22:20:17.170Z,7.47
2023-02-19T22:22:44.734Z,7.71
2023-02-19T22:25:12.250Z,7.61
2023-02-19T22:27:41.286Z,7.65
2023-02-19T22:30:09.767Z,7.39
2023-02-19T22:32:37.379Z,7.49
2023-02-19T22:35:04.943Z,7.70
2023-02-19T22:37:32.438Z,7.66
2023-02-19T22:39:59.839Z,7.63
2023-02-19T22:42:29.252Z,7.52
2023-02-19T22:44:58.027Z,7.58
2023-02-19T22:47:25.571Z,7.48
2023-02-19T22:49:53.090Z,7.66
2023-02-19T22:52:20.497Z,7.51
2023-02-19T22:54:47.898Z,7.61
2023-02-19T22:57:15.444Z,7.70
2023-02-19T22:59:42.852Z,7.67
2023-02-19T23:02:11.663Z,7.72
2023-02-19T23:04:39.075Z,7.68
2023-02-19T23:07:06.955Z,7.68
2023-02-19T23:09:34.543Z,7.59
2023-02-19T23:12:03.106Z,7.45
2023-02-19T23:14:30.666Z,7.36
2023-02-19T23:16:58.341Z,7.37
2023-02-19T23:19:27.513Z,7.36
2023-02-19T23:21:55.184Z,7.22
2023-02-19T23:24:22.750Z,7.27
2023-02-19T23:26:52.294Z,7.36
2023-02-19T23:29:21.338Z,7.33
2023-02-19T23:31:49.002Z,7.20
2023-02-19T23:34:17.002Z,7.19
2023-02-19T23:36:47.821Z,7.34
2023-02-19T23:39:17.873Z,7.07
2023-02-19T23:41:48.955Z,7.13
2023-02-19T23:44:16.635Z,7.31
2023-02-19T23:46:44.721Z,7.22
2023-02-19T23:49:12.246Z,7.36
2023-02-19T23:51:39.867Z,7.28
2023-02-19T23:54:09.143Z,7.18
2023-02-19T23:56:36.752Z,7.26
2023-02-19T23:59:04.733Z,7.21
